sensor_id;sensor_type;location;lat;lon;timestamp;temperature;humidity
25753;DHT22;13600;50.816;4.416;2023-05-29T00:01:18;17.80;99.90
25753;DHT22;13600;50.816;4.416;2023-05-29T00:03:44;17.60;99.90
25753;DHT22;13600;50.816;4.416;2023-05-29T00:06:09;17.50;99.90
25753;DHT22;13600;50.816;4.416;2023-05-29T00:08:35;17.50;99.90
25753;DHT22;13600;50.816;4.416;2023-05-29T00:11:01;17.60;99.90
25753;DHT22;13600;50.816;4.416;2023-05-29T00:13:26;17.40;99.90
25753;DHT22;13600;50.816;4.416;2023-05-29T00:15:52;17.40;99.90
25753;DHT22;13600;50.816;4.416;2023-05-29T00:18:17;17.10;99.90
25753;DHT22;13600;50.816;4.416;2023-05-29T00:20:43;17.20;99.90
25753;DHT22;13600;50.816;4.416;2023-05-29T00:23:08;17.40;99.90
25753;DHT22;13600;50.816;4.416;2023-05-29T00:25:35;17.50;99.90
25753;DHT22;13600;50.816;4.416;2023-05-29T00:28:00;17.60;99.90
25753;DHT22;13600;50.816;4.416;2023-05-29T00:30:26;17.50;99.90
25753;DHT22;13600;50.816;4.416;2023-05-29T00:32:52;17.20;99.90
25753;DHT22;13600;50.816;4.416;2023-05-29T00:35:17;16.80;99.90
25753;DHT22;13600;50.816;4.416;2023-05-29T00:37:43;16.90;99.90
25753;DHT22;13600;50.816;4.416;2023-05-29T00:40:09;16.90;99.90
25753;DHT22;13600;50.816;4.416;2023-05-29T00:42:35;16.80;99.90
25753;DHT22;13600;50.816;4.416;2023-05-29T00:45:00;16.70;99.90
25753;DHT22;13600;50.816;4.416;2023-05-29T00:47:26;16.70;99.90
25753;DHT22;13600;50.816;4.416;2023-05-29T00:49:51;16.80;99.90
25753;DHT22;13600;50.816;4.416;2023-05-29T00:52:18;16.90;99.90
25753;DHT22;13600;50.816;4.416;2023-05-29T00:54:45;16.80;99.90
25753;DHT22;13600;50.816;4.416;2023-05-29T00:57:12;16.80;99.90
25753;DHT22;13600;50.816;4.416;2023-05-29T00:59:37;16.50;99.90
25753;DHT22;13600;50.816;4.416;2023-05-29T01:02:03;16.30;99.90
25753;DHT22;13600;50.816;4.416;2023-05-29T01:04:29;16.20;99.90
25753;DHT22;13600;50.816;4.416;2023-05-29T01:06:54;16.30;99.90
25753;DHT22;13600;50.816;4.416;2023-05-29T01:09:20;16.40;99.90
25753;DHT22;13600;50.816;4.416;2023-05-29T01:14:36;16.50;99.90
25753;DHT22;13600;50.816;4.416;2023-05-29T01:24:50;16.50;99.90
25753;DHT22;13600;50.816;4.416;2023-05-29T01:27:21;16.30;99.90
25753;DHT22;13600;50.816;4.416;2023-05-29T01:29:49;16.40;99.90
25753;DHT22;13600;50.816;4.416;2023-05-29T01:32:15;16.30;99.90
25753;DHT22;13600;50.816;4.416;2023-05-29T01:34:41;16.30;99.90
25753;DHT22;13600;50.816;4.416;2023-05-29T01:37:07;16.20;99.90
25753;DHT22;13600;50.816;4.416;2023-05-29T01:39:32;15.90;99.90
25753;DHT22;13600;50.816;4.416;2023-05-29T01:41:58;15.90;99.90
25753;DHT22;13600;50.816;4.416;2023-05-29T01:44:24;15.90;99.90
25753;DHT22;13600;50.816;4.416;2023-05-29T01:46:50;16.00;99.90
25753;DHT22;13600;50.816;4.416;2023-05-29T01:49:16;16.10;99.90
25753;DHT22;13600;50.816;4.416;2023-05-29T01:51:42;16.20;99.90
25753;DHT22;13600;50.816;4.416;2023-05-29T01:54:07;16.20;99.90
25753;DHT22;13600;50.816;4.416;2023-05-29T01:56:33;16.10;99.90
25753;DHT22;13600;50.816;4.416;2023-05-29T01:58:59;15.70;99.90
25753;DHT22;13600;50.816;4.416;2023-05-29T02:01:26;15.60;99.90
25753;DHT22;13600;50.816;4.416;2023-05-29T02:03:51;15.70;99.90
25753;DHT22;13600;50.816;4.416;2023-05-29T02:06:17;15.90;99.90
25753;DHT22;13600;50.816;4.416;2023-05-29T02:08:43;16.10;99.90
25753;DHT22;13600;50.816;4.416;2023-05-29T02:11:08;16.20;99.90
25753;DHT22;13600;50.816;4.416;2023-05-29T02:13:34;16.10;99.90
25753;DHT22;13600;50.816;4.416;2023-05-29T02:15:59;16.00;99.90
25753;DHT22;13600;50.816;4.416;2023-05-29T02:18:25;16.00;99.90
25753;DHT22;13600;50.816;4.416;2023-05-29T02:20:50;16.00;99.90
25753;DHT22;13600;50.816;4.416;2023-05-29T02:23:16;16.00;99.90
25753;DHT22;13600;50.816;4.416;2023-05-29T02:25:42;15.90;99.90
25753;DHT22;13600;50.816;4.416;2023-05-29T02:28:07;15.90;99.90
25753;DHT22;13600;50.816;4.416;2023-05-29T02:30:33;15.60;99.90
25753;DHT22;13600;50.816;4.416;2023-05-29T02:32:58;15.50;99.90
25753;DHT22;13600;50.816;4.416;2023-05-29T02:35:24;15.70;99.90
25753;DHT22;13600;50.816;4.416;2023-05-29T02:37:50;15.60;99.90
25753;DHT22;13600;50.816;4.416;2023-05-29T02:40:16;15.50;99.90
25753;DHT22;13600;50.816;4.416;2023-05-29T02:42:41;15.50;99.90
25753;DHT22;13600;50.816;4.416;2023-05-29T02:45:07;15.60;99.90
25753;DHT22;13600;50.816;4.416;2023-05-29T02:47:32;15.50;99.90
25753;DHT22;13600;50.816;4.416;2023-05-29T02:49:58;15.30;99.90
25753;DHT22;13600;50.816;4.416;2023-05-29T02:52:23;15.20;99.90
25753;DHT22;13600;50.816;4.416;2023-05-29T02:54:49;15.30;99.90
25753;DHT22;13600;50.816;4.416;2023-05-29T02:57:15;15.30;99.90
25753;DHT22;13600;50.816;4.416;2023-05-29T02:59:40;15.30;99.90
25753;DHT22;13600;50.816;4.416;2023-05-29T03:02:06;15.00;99.90
25753;DHT22;13600;50.816;4.416;2023-05-29T03:04:31;15.00;99.90
25753;DHT22;13600;50.816;4.416;2023-05-29T03:06:57;15.00;99.90
25753;DHT22;13600;50.816;4.416;2023-05-29T03:09:23;15.00;99.90
25753;DHT22;13600;50.816;4.416;2023-05-29T03:11:48;15.00;99.90
25753;DHT22;13600;50.816;4.416;2023-05-29T03:14:15;14.80;99.90
25753;DHT22;13600;50.816;4.416;2023-05-29T03:16:41;14.50;99.90
25753;DHT22;13600;50.816;4.416;2023-05-29T03:19:07;14.50;99.90
25753;DHT22;13600;50.816;4.416;2023-05-29T03:21:32;14.60;99.90
25753;DHT22;13600;50.816;4.416;2023-05-29T03:23:58;14.80;99.90
25753;DHT22;13600;50.816;4.416;2023-05-29T03:26:24;14.80;99.90
25753;DHT22;13600;50.816;4.416;2023-05-29T03:28:51;14.60;99.90
25753;DHT22;13600;50.816;4.416;2023-05-29T03:31:16;14.70;99.90
25753;DHT22;13600;50.816;4.416;2023-05-29T03:33:41;14.60;99.90
25753;DHT22;13600;50.816;4.416;2023-05-29T03:36:07;14.50;99.90
25753;DHT22;13600;50.816;4.416;2023-05-29T03:38:33;14.50;99.90
25753;DHT22;13600;50.816;4.416;2023-05-29T03:40:58;14.50;99.90
25753;DHT22;13600;50.816;4.416;2023-05-29T03:43:23;14.50;99.90
25753;DHT22;13600;50.816;4.416;2023-05-29T03:45:49;14.40;99.90
25753;DHT22;13600;50.816;4.416;2023-05-29T03:48:15;14.30;99.90
25753;DHT22;13600;50.816;4.416;2023-05-29T03:50:40;14.10;99.90
25753;DHT22;13600;50.816;4.416;2023-05-29T03:53:06;14.20;99.90
25753;DHT22;13600;50.816;4.416;2023-05-29T03:55:31;14.00;99.90
25753;DHT22;13600;50.816;4.416;2023-05-29T03:57:57;14.00;99.90
25753;DHT22;13600;50.816;4.416;2023-05-29T04:00:22;14.00;99.90
25753;DHT22;13600;50.816;4.416;2023-05-29T04:02:48;14.10;99.90
25753;DHT22;13600;50.816;4.416;2023-05-29T04:05:13;14.20;99.90
25753;DHT22;13600;50.816;4.416;2023-05-29T04:07:39;14.30;99.90
25753;DHT22;13600;50.816;4.416;2023-05-29T04:10:07;14.40;99.90
25753;DHT22;13600;50.816;4.416;2023-05-29T04:12:33;14.20;99.90
25753;DHT22;13600;50.816;4.416;2023-05-29T04:14:59;14.30;99.90
25753;DHT22;13600;50.816;4.416;2023-05-29T04:17:24;14.40;99.90
25753;DHT22;13600;50.816;4.416;2023-05-29T04:19:50;14.40;99.90
25753;DHT22;13600;50.816;4.416;2023-05-29T04:22:15;14.40;99.90
25753;DHT22;13600;50.816;4.416;2023-05-29T04:24:41;14.40;99.90
25753;DHT22;13600;50.816;4.416;2023-05-29T04:27:09;14.30;99.90
25753;DHT22;13600;50.816;4.416;2023-05-29T04:29:38;14.10;99.90
25753;DHT22;13600;50.816;4.416;2023-05-29T04:32:06;13.90;99.90
25753;DHT22;13600;50.816;4.416;2023-05-29T04:34:33;13.90;99.90
25753;DHT22;13600;50.816;4.416;2023-05-29T04:36:59;14.00;99.90
25753;DHT22;13600;50.816;4.416;2023-05-29T04:39:25;14.20;99.90
25753;DHT22;13600;50.816;4.416;2023-05-29T04:41:51;14.40;99.90
25753;DHT22;13600;50.816;4.416;2023-05-29T04:44:16;14.40;99.90
25753;DHT22;13600;50.816;4.416;2023-05-29T04:46:42;14.40;99.90
25753;DHT22;13600;50.816;4.416;2023-05-29T04:49:12;14.10;99.90
25753;DHT22;13600;50.816;4.416;2023-05-29T04:51:38;14.00;99.90
25753;DHT22;13600;50.816;4.416;2023-05-29T04:54:06;13.80;99.90
25753;DHT22;13600;50.816;4.416;2023-05-29T04:56:32;14.00;99.90
25753;DHT22;13600;50.816;4.416;2023-05-29T04:58:57;14.00;99.90
25753;DHT22;13600;50.816;4.416;2023-05-29T05:01:23;14.20;99.90
25753;DHT22;13600;50.816;4.416;2023-05-29T05:03:49;14.10;99.90
25753;DHT22;13600;50.816;4.416;2023-05-29T05:06:15;14.10;99.90
25753;DHT22;13600;50.816;4.416;2023-05-29T05:08:42;14.00;99.90
25753;DHT22;13600;50.816;4.416;2023-05-29T05:11:07;14.00;99.90
25753;DHT22;13600;50.816;4.416;2023-05-29T05:13:33;14.00;99.90
25753;DHT22;13600;50.816;4.416;2023-05-29T05:15:58;13.90;99.90
25753;DHT22;13600;50.816;4.416;2023-05-29T05:18:24;14.00;99.90
25753;DHT22;13600;50.816;4.416;2023-05-29T05:20:49;14.10;99.90
25753;DHT22;13600;50.816;4.416;2023-05-29T05:23:15;13.90;99.90
25753;DHT22;13600;50.816;4.416;2023-05-29T05:25:40;14.30;99.90
25753;DHT22;13600;50.816;4.416;2023-05-29T05:28:07;14.10;99.90
25753;DHT22;13600;50.816;4.416;2023-05-29T05:30:33;14.20;99.90
25753;DHT22;13600;50.816;4.416;2023-05-29T05:32:58;14.20;99.90
25753;DHT22;13600;50.816;4.416;2023-05-29T05:35:24;14.30;99.90
25753;DHT22;13600;50.816;4.416;2023-05-29T05:37:49;14.00;99.90
25753;DHT22;13600;50.816;4.416;2023-05-29T05:40:15;14.20;99.90
25753;DHT22;13600;50.816;4.416;2023-05-29T05:42:40;14.40;99.90
25753;DHT22;13600;50.816;4.416;2023-05-29T05:45:06;14.50;99.90
25753;DHT22;13600;50.816;4.416;2023-05-29T05:47:32;14.50;99.90
25753;DHT22;13600;50.816;4.416;2023-05-29T05:49:58;14.50;99.90
25753;DHT22;13600;50.816;4.416;2023-05-29T05:52:24;14.40;99.90
25753;DHT22;13600;50.816;4.416;2023-05-29T05:54:49;14.40;99.90
25753;DHT22;13600;50.816;4.416;2023-05-29T05:57:15;14.40;99.90
25753;DHT22;13600;50.816;4.416;2023-05-29T05:59:40;14.40;99.90
25753;DHT22;13600;50.816;4.416;2023-05-29T06:02:06;14.50;99.90
25753;DHT22;13600;50.816;4.416;2023-05-29T06:04:32;14.50;99.90
25753;DHT22;13600;50.816;4.416;2023-05-29T06:06:57;14.40;99.90
25753;DHT22;13600;50.816;4.416;2023-05-29T06:09:23;14.40;99.90
25753;DHT22;13600;50.816;4.416;2023-05-29T06:11:48;14.50;99.90
25753;DHT22;13600;50.816;4.416;2023-05-29T06:14:14;14.50;99.90
25753;DHT22;13600;50.816;4.416;2023-05-29T06:16:40;14.60;99.90
25753;DHT22;13600;50.816;4.416;2023-05-29T06:19:05;14.70;99.90
25753;DHT22;13600;50.816;4.416;2023-05-29T06:21:31;14.90;99.90
25753;DHT22;13600;50.816;4.416;2023-05-29T06:23:57;15.10;99.90
25753;DHT22;13600;50.816;4.416;2023-05-29T06:26:22;15.10;99.90
25753;DHT22;13600;50.816;4.416;2023-05-29T06:28:50;15.00;99.90
25753;DHT22;13600;50.816;4.416;2023-05-29T06:31:16;14.90;99.90
25753;DHT22;13600;50.816;4.416;2023-05-29T06:33:42;14.90;99.90
25753;DHT22;13600;50.816;4.416;2023-05-29T06:36:07;14.80;99.90
25753;DHT22;13600;50.816;4.416;2023-05-29T06:38:33;14.80;99.90
25753;DHT22;13600;50.816;4.416;2023-05-29T06:40:58;14.90;99.90
25753;DHT22;13600;50.816;4.416;2023-05-29T06:43:24;15.00;99.90
25753;DHT22;13600;50.816;4.416;2023-05-29T06:45:49;15.00;99.90
25753;DHT22;13600;50.816;4.416;2023-05-29T06:48:15;15.10;99.90
25753;DHT22;13600;50.816;4.416;2023-05-29T06:50:40;15.10;99.90
25753;DHT22;13600;50.816;4.416;2023-05-29T06:53:06;15.00;99.90
25753;DHT22;13600;50.816;4.416;2023-05-29T06:55:31;15.00;99.90
25753;DHT22;13600;50.816;4.416;2023-05-29T06:57:57;15.30;99.90
25753;DHT22;13600;50.816;4.416;2023-05-29T07:00:22;15.50;99.90
25753;DHT22;13600;50.816;4.416;2023-05-29T07:02:48;15.70;99.90
25753;DHT22;13600;50.816;4.416;2023-05-29T07:05:13;15.90;99.90
25753;DHT22;13600;50.816;4.416;2023-05-29T07:07:39;15.80;99.90
25753;DHT22;13600;50.816;4.416;2023-05-29T07:10:04;15.90;99.90
25753;DHT22;13600;50.816;4.416;2023-05-29T07:12:31;15.80;99.90
25753;DHT22;13600;50.816;4.416;2023-05-29T07:14:57;15.80;99.90
25753;DHT22;13600;50.816;4.416;2023-05-29T07:17:22;16.00;99.90
25753;DHT22;13600;50.816;4.416;2023-05-29T07:19:47;16.00;99.90
25753;DHT22;13600;50.816;4.416;2023-05-29T07:22:15;16.20;99.90
25753;DHT22;13600;50.816;4.416;2023-05-29T07:24:40;17.10;99.90
25753;DHT22;13600;50.816;4.416;2023-05-29T07:27:06;18.70;99.90
25753;DHT22;13600;50.816;4.416;2023-05-29T07:29:31;20.30;99.90
25753;DHT22;13600;50.816;4.416;2023-05-29T07:31:57;21.00;99.90
25753;DHT22;13600;50.816;4.416;2023-05-29T07:34:22;21.40;99.90
25753;DHT22;13600;50.816;4.416;2023-05-29T07:36:58;22.30;99.90
25753;DHT22;13600;50.816;4.416;2023-05-29T07:39:25;22.40;99.90
25753;DHT22;13600;50.816;4.416;2023-05-29T07:41:51;21.90;99.90
25753;DHT22;13600;50.816;4.416;2023-05-29T07:44:16;22.30;99.90
25753;DHT22;13600;50.816;4.416;2023-05-29T07:46:42;23.20;98.00
25753;DHT22;13600;50.816;4.416;2023-05-29T07:49:07;23.10;96.60
25753;DHT22;13600;50.816;4.416;2023-05-29T07:51:33;23.80;95.50
25753;DHT22;13600;50.816;4.416;2023-05-29T07:53:58;24.70;92.70
25753;DHT22;13600;50.816;4.416;2023-05-29T07:56:24;26.00;90.90
25753;DHT22;13600;50.816;4.416;2023-05-29T07:58:50;26.20;86.70
25753;DHT22;13600;50.816;4.416;2023-05-29T08:01:18;25.90;86.30
25753;DHT22;13600;50.816;4.416;2023-05-29T08:03:44;25.80;85.70
25753;DHT22;13600;50.816;4.416;2023-05-29T08:06:10;26.30;82.50
25753;DHT22;13600;50.816;4.416;2023-05-29T08:08:35;26.60;81.00
25753;DHT22;13600;50.816;4.416;2023-05-29T08:11:01;26.40;81.40
25753;DHT22;13600;50.816;4.416;2023-05-29T08:13:26;26.10;80.20
25753;DHT22;13600;50.816;4.416;2023-05-29T08:15:53;26.50;79.80
25753;DHT22;13600;50.816;4.416;2023-05-29T08:18:18;27.40;78.40
25753;DHT22;13600;50.816;4.416;2023-05-29T08:20:44;26.30;78.90
25753;DHT22;13600;50.816;4.416;2023-05-29T08:23:10;27.20;77.90
25753;DHT22;13600;50.816;4.416;2023-05-29T08:25:35;28.20;75.90
25753;DHT22;13600;50.816;4.416;2023-05-29T08:28:01;29.00;72.60
25753;DHT22;13600;50.816;4.416;2023-05-29T08:30:26;27.20;73.90
25753;DHT22;13600;50.816;4.416;2023-05-29T08:32:52;27.80;73.80
25753;DHT22;13600;50.816;4.416;2023-05-29T08:35:18;28.20;72.90
25753;DHT22;13600;50.816;4.416;2023-05-29T08:37:44;29.30;69.60
25753;DHT22;13600;50.816;4.416;2023-05-29T08:40:10;29.50;69.00
25753;DHT22;13600;50.816;4.416;2023-05-29T08:42:40;30.40;67.00
25753;DHT22;13600;50.816;4.416;2023-05-29T08:45:08;30.30;65.10
25753;DHT22;13600;50.816;4.416;2023-05-29T08:47:37;29.70;66.00
25753;DHT22;13600;50.816;4.416;2023-05-29T08:50:05;30.50;63.80
25753;DHT22;13600;50.816;4.416;2023-05-29T08:52:33;30.10;63.20
25753;DHT22;13600;50.816;4.416;2023-05-29T08:55:00;29.70;64.20
25753;DHT22;13600;50.816;4.416;2023-05-29T08:57:27;29.60;63.60
25753;DHT22;13600;50.816;4.416;2023-05-29T08:59:53;29.40;66.30
25753;DHT22;13600;50.816;4.416;2023-05-29T09:02:20;29.90;64.10
25753;DHT22;13600;50.816;4.416;2023-05-29T09:04:45;30.40;62.50
25753;DHT22;13600;50.816;4.416;2023-05-29T09:07:14;30.20;62.80
25753;DHT22;13600;50.816;4.416;2023-05-29T09:09:40;29.40;63.70
25753;DHT22;13600;50.816;4.416;2023-05-29T09:12:06;29.90;63.50
25753;DHT22;13600;50.816;4.416;2023-05-29T09:14:33;30.90;62.10
25753;DHT22;13600;50.816;4.416;2023-05-29T09:16:59;29.90;62.10
25753;DHT22;13600;50.816;4.416;2023-05-29T09:19:25;29.90;62.10
25753;DHT22;13600;50.816;4.416;2023-05-29T09:21:51;29.70;62.70
25753;DHT22;13600;50.816;4.416;2023-05-29T09:24:16;30.40;62.80
25753;DHT22;13600;50.816;4.416;2023-05-29T09:26:49;31.40;61.10
25753;DHT22;13600;50.816;4.416;2023-05-29T09:29:15;31.80;59.80
25753;DHT22;13600;50.816;4.416;2023-05-29T09:31:47;31.40;59.90
25753;DHT22;13600;50.816;4.416;2023-05-29T09:34:13;32.10;59.40
25753;DHT22;13600;50.816;4.416;2023-05-29T09:36:38;31.40;58.30
25753;DHT22;13600;50.816;4.416;2023-05-29T09:39:04;30.80;58.90
25753;DHT22;13600;50.816;4.416;2023-05-29T09:41:29;30.40;59.60
25753;DHT22;13600;50.816;4.416;2023-05-29T09:43:56;29.60;60.70
25753;DHT22;13600;50.816;4.416;2023-05-29T09:46:24;30.10;60.70
25753;DHT22;13600;50.816;4.416;2023-05-29T09:48:50;30.60;59.70
25753;DHT22;13600;50.816;4.416;2023-05-29T09:51:19;31.30;59.10
25753;DHT22;13600;50.816;4.416;2023-05-29T09:53:45;32.30;58.40
25753;DHT22;13600;50.816;4.416;2023-05-29T09:56:11;32.40;56.90
25753;DHT22;13600;50.816;4.416;2023-05-29T09:58:38;31.90;57.90
25753;DHT22;13600;50.816;4.416;2023-05-29T10:01:11;32.30;58.00
25753;DHT22;13600;50.816;4.416;2023-05-29T10:03:37;32.30;56.90
25753;DHT22;13600;50.816;4.416;2023-05-29T10:06:03;31.40;57.10
25753;DHT22;13600;50.816;4.416;2023-05-29T10:08:31;31.60;57.70
25753;DHT22;13600;50.816;4.416;2023-05-29T10:11:01;32.70;56.40
25753;DHT22;13600;50.816;4.416;2023-05-29T10:13:35;31.60;56.60
25753;DHT22;13600;50.816;4.416;2023-05-29T10:16:03;32.20;56.20
25753;DHT22;13600;50.816;4.416;2023-05-29T10:18:32;32.80;55.70
25753;DHT22;13600;50.816;4.416;2023-05-29T10:21:00;32.60;55.00
25753;DHT22;13600;50.816;4.416;2023-05-29T10:23:26;31.30;56.00
25753;DHT22;13600;50.816;4.416;2023-05-29T10:25:53;31.00;56.80
25753;DHT22;13600;50.816;4.416;2023-05-29T10:28:22;30.70;57.50
25753;DHT22;13600;50.816;4.416;2023-05-29T10:31:24;31.20;57.00
25753;DHT22;13600;50.816;4.416;2023-05-29T10:36:19;31.10;56.40
25753;DHT22;13600;50.816;4.416;2023-05-29T10:38:47;32.40;56.50
25753;DHT22;13600;50.816;4.416;2023-05-29T10:43:54;32.70;54.50
25753;DHT22;13600;50.816;4.416;2023-05-29T10:46:19;33.00;53.60
25753;DHT22;13600;50.816;4.416;2023-05-29T10:48:45;32.10;54.80
25753;DHT22;13600;50.816;4.416;2023-05-29T10:51:24;32.30;53.80
25753;DHT22;13600;50.816;4.416;2023-05-29T10:53:49;32.20;54.60
25753;DHT22;13600;50.816;4.416;2023-05-29T10:56:16;32.30;54.70
25753;DHT22;13600;50.816;4.416;2023-05-29T10:58:45;33.10;54.40
25753;DHT22;13600;50.816;4.416;2023-05-29T11:01:16;32.90;53.50
25753;DHT22;13600;50.816;4.416;2023-05-29T11:03:41;34.00;53.00
25753;DHT22;13600;50.816;4.416;2023-05-29T11:06:16;32.90;52.90
25753;DHT22;13600;50.816;4.416;2023-05-29T11:08:55;33.00;52.30
25753;DHT22;13600;50.816;4.416;2023-05-29T11:13:53;34.10;52.50
25753;DHT22;13600;50.816;4.416;2023-05-29T11:18:51;36.10;49.90
25753;DHT22;13600;50.816;4.416;2023-05-29T11:23:43;33.90;50.30
25753;DHT22;13600;50.816;4.416;2023-05-29T11:26:10;33.70;51.80
25753;DHT22;13600;50.816;4.416;2023-05-29T11:28:36;33.60;51.10
25753;DHT22;13600;50.816;4.416;2023-05-29T11:31:02;33.10;51.70
25753;DHT22;13600;50.816;4.416;2023-05-29T11:33:33;34.60;50.60
25753;DHT22;13600;50.816;4.416;2023-05-29T11:36:00;34.30;50.50
25753;DHT22;13600;50.816;4.416;2023-05-29T11:38:26;35.00;50.30
25753;DHT22;13600;50.816;4.416;2023-05-29T11:40:54;34.70;50.10
25753;DHT22;13600;50.816;4.416;2023-05-29T11:43:19;34.80;50.10
25753;DHT22;13600;50.816;4.416;2023-05-29T11:45:45;35.70;49.80
25753;DHT22;13600;50.816;4.416;2023-05-29T11:48:11;35.80;48.80
25753;DHT22;13600;50.816;4.416;2023-05-29T11:50:36;35.10;48.80
25753;DHT22;13600;50.816;4.416;2023-05-29T11:53:02;34.60;49.50
25753;DHT22;13600;50.816;4.416;2023-05-29T11:55:27;35.40;49.60
25753;DHT22;13600;50.816;4.416;2023-05-29T11:57:56;35.70;49.70
25753;DHT22;13600;50.816;4.416;2023-05-29T12:00:23;35.50;48.40
25753;DHT22;13600;50.816;4.416;2023-05-29T12:02:49;34.00;49.70
25753;DHT22;13600;50.816;4.416;2023-05-29T12:05:16;34.30;49.90
25753;DHT22;13600;50.816;4.416;2023-05-29T12:07:47;35.50;50.00
25753;DHT22;13600;50.816;4.416;2023-05-29T12:10:13;36.90;48.30
25753;DHT22;13600;50.816;4.416;2023-05-29T12:12:40;35.30;49.00
25753;DHT22;13600;50.816;4.416;2023-05-29T12:15:06;36.30;47.80
25753;DHT22;13600;50.816;4.416;2023-05-29T12:17:35;35.40;48.10
25753;DHT22;13600;50.816;4.416;2023-05-29T12:20:01;34.50;49.20
25753;DHT22;13600;50.816;4.416;2023-05-29T12:22:33;34.50;49.50
25753;DHT22;13600;50.816;4.416;2023-05-29T12:25:06;35.50;49.20
25753;DHT22;13600;50.816;4.416;2023-05-29T12:27:33;35.00;48.80
25753;DHT22;13600;50.816;4.416;2023-05-29T12:30:03;34.70;48.00
25753;DHT22;13600;50.816;4.416;2023-05-29T12:32:35;35.00;48.40
25753;DHT22;13600;50.816;4.416;2023-05-29T12:35:01;35.20;47.90
25753;DHT22;13600;50.816;4.416;2023-05-29T12:37:29;35.40;47.70
25753;DHT22;13600;50.816;4.416;2023-05-29T12:40:13;32.80;50.00
25753;DHT22;13600;50.816;4.416;2023-05-29T12:42:40;32.70;50.30
25753;DHT22;13600;50.816;4.416;2023-05-29T12:45:06;32.90;49.90
25753;DHT22;13600;50.816;4.416;2023-05-29T12:47:33;33.20;50.00
25753;DHT22;13600;50.816;4.416;2023-05-29T12:49:59;34.20;49.40
25753;DHT22;13600;50.816;4.416;2023-05-29T12:52:24;34.60;48.80
25753;DHT22;13600;50.816;4.416;2023-05-29T12:54:50;34.90;48.40
25753;DHT22;13600;50.816;4.416;2023-05-29T12:57:15;34.90;48.50
25753;DHT22;13600;50.816;4.416;2023-05-29T12:59:41;34.60;49.00
25753;DHT22;13600;50.816;4.416;2023-05-29T13:02:07;34.20;49.50
25753;DHT22;13600;50.816;4.416;2023-05-29T13:04:33;34.70;49.00
25753;DHT22;13600;50.816;4.416;2023-05-29T13:06:59;34.70;49.20
25753;DHT22;13600;50.816;4.416;2023-05-29T13:09:25;34.50;48.60
25753;DHT22;13600;50.816;4.416;2023-05-29T13:11:50;33.90;48.50
25753;DHT22;13600;50.816;4.416;2023-05-29T13:14:16;33.60;49.80
25753;DHT22;13600;50.816;4.416;2023-05-29T13:16:41;33.70;49.10
25753;DHT22;13600;50.816;4.416;2023-05-29T13:19:07;33.90;49.10
25753;DHT22;13600;50.816;4.416;2023-05-29T13:21:32;34.30;49.30
25753;DHT22;13600;50.816;4.416;2023-05-29T13:23:58;33.60;50.20
25753;DHT22;13600;50.816;4.416;2023-05-29T13:26:23;33.40;50.00
25753;DHT22;13600;50.816;4.416;2023-05-29T13:28:50;33.60;49.20
25753;DHT22;13600;50.816;4.416;2023-05-29T13:31:16;33.00;49.50
25753;DHT22;13600;50.816;4.416;2023-05-29T13:33:42;33.10;50.10
25753;DHT22;13600;50.816;4.416;2023-05-29T13:36:07;33.30;50.80
25753;DHT22;13600;50.816;4.416;2023-05-29T13:38:33;34.20;50.20
25753;DHT22;13600;50.816;4.416;2023-05-29T13:40:58;32.90;50.00
25753;DHT22;13600;50.816;4.416;2023-05-29T13:43:24;32.80;50.40
25753;DHT22;13600;50.816;4.416;2023-05-29T13:45:49;31.70;51.40
25753;DHT22;13600;50.816;4.416;2023-05-29T13:48:15;32.80;51.00
25753;DHT22;13600;50.816;4.416;2023-05-29T13:50:40;33.30;50.00
25753;DHT22;13600;50.816;4.416;2023-05-29T13:53:06;32.90;50.40
25753;DHT22;13600;50.816;4.416;2023-05-29T13:55:31;32.70;50.90
25753;DHT22;13600;50.816;4.416;2023-05-29T13:57:57;32.40;51.60
25753;DHT22;13600;50.816;4.416;2023-05-29T14:00:23;32.70;50.80
25753;DHT22;13600;50.816;4.416;2023-05-29T14:02:48;32.50;51.00
25753;DHT22;13600;50.816;4.416;2023-05-29T14:05:14;32.50;51.50
25753;DHT22;13600;50.816;4.416;2023-05-29T14:07:39;32.40;50.90
25753;DHT22;13600;50.816;4.416;2023-05-29T14:10:05;31.50;52.30
25753;DHT22;13600;50.816;4.416;2023-05-29T14:12:31;31.90;52.10
25753;DHT22;13600;50.816;4.416;2023-05-29T14:14:56;32.70;51.70
25753;DHT22;13600;50.816;4.416;2023-05-29T14:17:22;31.90;51.30
25753;DHT22;13600;50.816;4.416;2023-05-29T14:19:47;32.00;51.90
25753;DHT22;13600;50.816;4.416;2023-05-29T14:22:13;32.10;51.70
25753;DHT22;13600;50.816;4.416;2023-05-29T14:24:38;31.40;52.60
25753;DHT22;13600;50.816;4.416;2023-05-29T14:27:04;31.20;52.50
25753;DHT22;13600;50.816;4.416;2023-05-29T14:29:31;31.00;52.90
25753;DHT22;13600;50.816;4.416;2023-05-29T14:31:56;31.10;52.80
25753;DHT22;13600;50.816;4.416;2023-05-29T14:34:22;31.30;52.40
25753;DHT22;13600;50.816;4.416;2023-05-29T14:36:47;31.10;52.90
25753;DHT22;13600;50.816;4.416;2023-05-29T14:39:13;31.20;52.90
25753;DHT22;13600;50.816;4.416;2023-05-29T14:41:38;30.80;52.80
25753;DHT22;13600;50.816;4.416;2023-05-29T14:44:04;30.20;53.30
25753;DHT22;13600;50.816;4.416;2023-05-29T14:46:29;30.00;54.00
25753;DHT22;13600;50.816;4.416;2023-05-29T14:48:57;29.60;54.40
25753;DHT22;13600;50.816;4.416;2023-05-29T14:51:23;29.60;55.10
25753;DHT22;13600;50.816;4.416;2023-05-29T14:53:49;29.70;54.50
25753;DHT22;13600;50.816;4.416;2023-05-29T14:56:15;29.40;55.20
25753;DHT22;13600;50.816;4.416;2023-05-29T14:58:40;29.20;55.40
25753;DHT22;13600;50.816;4.416;2023-05-29T15:01:06;29.30;55.70
25753;DHT22;13600;50.816;4.416;2023-05-29T15:03:32;28.90;55.90
25753;DHT22;13600;50.816;4.416;2023-05-29T15:06:01;28.40;56.40
25753;DHT22;13600;50.816;4.416;2023-05-29T15:08:26;28.20;56.80
25753;DHT22;13600;50.816;4.416;2023-05-29T15:10:53;28.20;56.90
25753;DHT22;13600;50.816;4.416;2023-05-29T15:13:18;27.70;57.60
25753;DHT22;13600;50.816;4.416;2023-05-29T15:15:45;27.50;58.50
25753;DHT22;13600;50.816;4.416;2023-05-29T15:18:10;27.60;58.30
25753;DHT22;13600;50.816;4.416;2023-05-29T15:20:36;27.60;58.60
25753;DHT22;13600;50.816;4.416;2023-05-29T15:23:01;27.30;58.40
25753;DHT22;13600;50.816;4.416;2023-05-29T15:25:27;26.80;59.30
25753;DHT22;13600;50.816;4.416;2023-05-29T15:27:52;26.70;59.70
25753;DHT22;13600;50.816;4.416;2023-05-29T15:30:18;26.80;59.10
25753;DHT22;13600;50.816;4.416;2023-05-29T15:32:44;26.70;59.10
25753;DHT22;13600;50.816;4.416;2023-05-29T15:35:10;25.90;60.60
25753;DHT22;13600;50.816;4.416;2023-05-29T15:37:37;25.50;61.50
25753;DHT22;13600;50.816;4.416;2023-05-29T15:40:02;25.10;62.70
25753;DHT22;13600;50.816;4.416;2023-05-29T15:42:28;25.30;62.60
25753;DHT22;13600;50.816;4.416;2023-05-29T15:44:54;25.50;61.20
25753;DHT22;13600;50.816;4.416;2023-05-29T15:47:19;25.30;61.60